Time;durP1;ratioP1;P1;durP2;ratioP2;P2;SDS_P1;SDS_P2;PMS_P1;PMS_P2;Temp;Humidity;BMP_temperature;BMP_pressure;BME280_temperature;BME280_humidity;BME280_pressure;Samples;Min_cycle;Max_cycle;Signal;HPM_P1;HPM_P2
2023/12/11 00:02:24;;;;;;;16.60;3.58;;;9.80;99.90;;;;;;6302642;22;20026;-59
2023/12/11 00:04:50;;;;;;;22.08;2.85;;;9.80;99.90;;;;;;6302561;22;20137;-59
2023/12/11 00:07:16;;;;;;;14.00;3.58;;;9.80;99.90;;;;;;6300986;22;20026;-59
2023/12/11 00:09:41;;;;;;;18.85;2.58;;;9.80;99.90;;;;;;6303499;22;20003;-58
2023/12/11 00:12:07;;;;;;;10.38;2.30;;;9.80;99.90;;;;;;6301256;22;20255;-58
2023/12/11 00:14:33;;;;;;;10.98;2.00;;;9.80;99.90;;;;;;6302125;22;20003;-58
2023/12/11 00:16:59;;;;;;;14.20;2.25;;;9.70;99.90;;;;;;6303132;22;20009;-58
2023/12/11 00:19:25;;;;;;;13.27;3.03;;;9.70;99.90;;;;;;6300439;22;20003;-58
2023/12/11 00:21:51;;;;;;;12.07;1.80;;;9.70;99.90;;;;;;6299622;22;20004;-58
2023/12/11 00:24:17;;;;;;;16.10;2.53;;;9.80;99.90;;;;;;6299590;22;20010;-58
2023/12/11 00:26:42;;;;;;;11.77;2.35;;;9.80;99.90;;;;;;6301395;22;20479;-59
2023/12/11 00:29:09;;;;;;;16.63;3.88;;;9.80;99.90;;;;;;6301553;22;20018;-59
2023/12/11 00:31:35;;;;;;;14.18;2.65;;;9.80;99.90;;;;;;6302311;22;20002;-58
2023/12/11 00:34:00;;;;;;;29.60;3.25;;;9.80;99.90;;;;;;6300812;22;20010;-59
2023/12/11 00:36:27;;;;;;;13.13;2.13;;;9.70;99.90;;;;;;6300810;22;20048;-59
2023/12/11 00:38:52;;;;;;;18.98;3.08;;;9.70;99.90;;;;;;6298964;22;19999;-59
2023/12/11 00:41:18;;;;;;;15.70;3.08;;;9.70;99.90;;;;;;6301525;22;20387;-57
2023/12/11 00:43:44;;;;;;;13.18;2.85;;;9.70;99.90;;;;;;6302332;22;19999;-59
2023/12/11 00:46:21;;;;;;;22.10;3.40;;;9.70;99.90;;;;;;6275070;22;20075;-58
2023/12/11 00:48:46;;;;;;;18.25;2.60;;;9.70;99.90;;;;;;6301280;22;20034;-59
2023/12/11 00:51:17;;;;;;;12.52;2.53;;;9.70;99.90;;;;;;6275790;22;20378;-56
2023/12/11 00:53:43;;;;;;;21.58;3.10;;;9.60;99.90;;;;;;6300574;22;20007;-59
2023/12/11 00:56:09;;;;;;;12.98;2.33;;;9.60;99.90;;;;;;6301361;22;20003;-59
2023/12/11 00:58:34;;;;;;;21.30;3.45;;;9.60;99.90;;;;;;6301740;22;20429;-59
2023/12/11 01:01:00;;;;;;;21.08;3.63;;;9.70;99.90;;;;;;6302870;22;19996;-59
2023/12/11 01:03:26;;;;;;;19.45;3.00;;;9.60;99.90;;;;;;6302965;22;20003;-59
2023/12/11 01:05:51;;;;;;;19.48;2.65;;;9.60;99.90;;;;;;6300434;22;20003;-59
2023/12/11 01:08:17;;;;;;;19.98;3.47;;;9.50;99.90;;;;;;6303428;22;20000;-59
2023/12/11 01:10:43;;;;;;;18.25;1.98;;;9.50;99.90;;;;;;6302968;22;20010;-58
2023/12/11 01:13:09;;;;;;;21.85;3.03;;;9.50;99.90;;;;;;6302508;22;20029;-59
2023/12/11 01:15:34;;;;;;;14.05;2.95;;;9.50;99.90;;;;;;6302188;22;20014;-59
2023/12/11 01:18:00;;;;;;;19.38;2.58;;;9.40;99.90;;;;;;6302687;22;19999;-59
2023/12/11 01:20:26;;;;;;;13.25;3.08;;;9.50;99.90;;;;;;6302497;22;20004;-59
2023/12/11 01:22:51;;;;;;;18.80;3.25;;;9.40;99.90;;;;;;6303093;22;20003;-59
2023/12/11 01:25:17;;;;;;;18.15;2.15;;;9.40;99.90;;;;;;6302233;22;20480;-58
2023/12/11 01:27:42;;;;;;;23.02;3.40;;;9.40;99.90;;;;;;6302916;22;20070;-58
2023/12/11 01:30:08;;;;;;;14.43;2.13;;;9.50;99.90;;;;;;6304458;22;20015;-58
2023/12/11 01:32:34;;;;;;;13.57;2.97;;;9.60;99.90;;;;;;6303678;22;20018;-58
2023/12/11 01:34:59;;;;;;;11.45;2.50;;;9.60;99.90;;;;;;6299926;22;19999;-59
2023/12/11 01:37:25;;;;;;;20.23;2.83;;;9.60;99.90;;;;;;6303007;22;20033;-58
2023/12/11 01:39:51;;;;;;;15.63;2.70;;;9.60;99.90;;;;;;6304507;22;20003;-59
2023/12/11 01:42:17;;;;;;;13.88;2.78;;;9.60;99.90;;;;;;6303737;22;20003;-58
2023/12/11 01:44:42;;;;;;;10.05;2.50;;;9.50;99.90;;;;;;6303561;22;20031;-58
2023/12/11 01:47:08;;;;;;;25.38;3.85;;;9.50;99.90;;;;;;6261686;22;20028;-59
2023/12/11 01:49:35;;;;;;;13.55;2.10;;;9.50;99.90;;;;;;6303858;22;20374;-59
2023/12/11 01:52:02;;;;;;;13.90;1.98;;;9.50;99.90;;;;;;6303438;22;20006;-58
2023/12/11 01:54:27;;;;;;;14.05;2.30;;;9.60;99.90;;;;;;6303854;22;20427;-58
2023/12/11 01:56:53;;;;;;;12.77;2.20;;;9.60;99.90;;;;;;6304537;22;19995;-58
2023/12/11 01:59:19;;;;;;;16.58;2.65;;;9.60;99.90;;;;;;6303723;22;20011;-60
2023/12/11 02:01:46;;;;;;;22.08;4.13;;;9.60;99.90;;;;;;6303797;22;20070;-59
2023/12/11 02:04:11;;;;;;;15.50;2.08;;;9.50;99.90;;;;;;6303074;22;20011;-59
2023/12/11 02:06:37;;;;;;;13.38;3.15;;;9.50;99.90;;;;;;6304395;22;20026;-58
2023/12/11 02:09:03;;;;;;;17.13;2.42;;;9.50;99.90;;;;;;6304136;22;20052;-59
2023/12/11 02:11:29;;;;;;;14.13;3.08;;;9.50;99.90;;;;;;6304450;22;20011;-57
2023/12/11 02:13:55;;;;;;;11.80;2.03;;;9.40;99.90;;;;;;6304415;22;20017;-59
2023/12/11 02:16:20;;;;;;;18.10;2.70;;;9.40;99.90;;;;;;6303079;22;20073;-58
2023/12/11 02:18:46;;;;;;;15.57;2.60;;;9.50;99.90;;;;;;6304339;22;20458;-58
2023/12/11 02:21:11;;;;;;;16.92;2.00;;;9.50;99.90;;;;;;6275851;22;20034;-59
2023/12/11 02:23:52;;;;;;;20.25;2.92;;;9.50;99.90;;;;;;6303780;22;20007;-59
2023/12/11 02:26:19;;;;;;;12.75;2.83;;;9.50;99.90;;;;;;6302502;22;20007;-59
2023/12/11 02:28:45;;;;;;;20.30;3.08;;;9.50;99.90;;;;;;6303963;22;20031;-58
2023/12/11 02:31:11;;;;;;;16.92;3.38;;;9.50;99.90;;;;;;6303406;22;20003;-59
2023/12/11 02:33:37;;;;;;;19.17;3.17;;;9.50;99.90;;;;;;6304301;22;20013;-59
2023/12/11 02:36:03;;;;;;;13.35;4.18;;;9.50;99.90;;;;;;6302958;22;20006;-58
2023/12/11 02:38:29;;;;;;;16.55;2.38;;;9.50;99.90;;;;;;6303059;22;20003;-58
2023/12/11 02:40:55;;;;;;;22.63;3.53;;;9.50;99.90;;;;;;6302718;22;20021;-59
2023/12/11 02:43:20;;;;;;;15.50;3.03;;;9.50;99.90;;;;;;6304027;22;20045;-58
2023/12/11 02:45:46;;;;;;;14.70;2.45;;;9.40;99.90;;;;;;6302696;22;20418;-58
2023/12/11 02:48:12;;;;;;;26.88;2.83;;;9.40;99.90;;;;;;6303647;22;20022;-59
2023/12/11 02:50:38;;;;;;;15.20;2.58;;;9.40;99.90;;;;;;6303351;22;20000;-59
2023/12/11 02:53:04;;;;;;;19.67;3.13;;;9.40;99.90;;;;;;6303316;22;20428;-59
2023/12/11 02:55:30;;;;;;;11.95;2.25;;;9.50;99.90;;;;;;6304978;22;20049;-58
2023/12/11 02:58:01;;;;;;;25.67;3.00;;;9.50;99.90;;;;;;6277779;22;20007;-59
2023/12/11 03:00:28;;;;;;;19.33;4.80;;;9.50;99.90;;;;;;6303890;22;19995;-59
2023/12/11 03:02:54;;;;;;;18.35;3.05;;;9.50;99.90;;;;;;6304143;22;20045;-59
2023/12/11 03:05:20;;;;;;;19.48;2.58;;;9.60;99.90;;;;;;6304778;22;20003;-58
2023/12/11 03:07:45;;;;;;;15.38;2.20;;;9.60;99.90;;;;;;6297147;22;20007;-58
2023/12/11 03:10:11;;;;;;;18.52;3.03;;;9.50;99.90;;;;;;6304584;22;20011;-59
2023/12/11 03:12:37;;;;;;;17.55;3.05;;;9.40;99.90;;;;;;6303005;22;20427;-59
2023/12/11 03:15:04;;;;;;;15.35;3.28;;;9.40;99.90;;;;;;6304045;22;20007;-57
2023/12/11 03:17:30;;;;;;;11.75;2.53;;;9.30;99.90;;;;;;6304352;22;20029;-58
2023/12/11 03:19:55;;;;;;;19.30;3.03;;;9.30;99.90;;;;;;6304041;22;20003;-58
2023/12/11 03:22:24;;;;;;;21.30;3.95;;;9.30;99.90;;;;;;6304130;22;20078;-59
2023/12/11 03:24:50;;;;;;;20.38;2.88;;;9.30;99.90;;;;;;6302259;22;20079;-59
2023/12/11 03:27:16;;;;;;;21.55;2.42;;;9.30;99.90;;;;;;6304320;22;20071;-58
2023/12/11 03:29:42;;;;;;;13.32;2.38;;;9.30;99.90;;;;;;6304269;22;20424;-58
2023/12/11 03:32:08;;;;;;;27.88;3.22;;;9.30;99.90;;;;;;6303999;22;20335;-58
2023/12/11 03:34:34;;;;;;;16.95;3.08;;;9.20;99.90;;;;;;6301601;22;20487;-59
2023/12/11 03:37:00;;;;;;;21.42;3.88;;;9.20;99.90;;;;;;6303386;22;20026;-59
2023/12/11 03:39:25;;;;;;;21.23;3.17;;;9.30;99.90;;;;;;6304356;22;20023;-58
2023/12/11 03:41:51;;;;;;;10.30;2.40;;;9.30;99.90;;;;;;6303790;22;19996;-59
2023/12/11 03:44:17;;;;;;;12.60;2.42;;;9.30;99.90;;;;;;6303080;22;20003;-58
2023/12/11 03:46:43;;;;;;;16.15;2.33;;;9.30;99.90;;;;;;6302925;22;20010;-58
2023/12/11 03:49:09;;;;;;;14.50;2.97;;;9.30;99.90;;;;;;6303406;22;20015;-59
2023/12/11 03:51:35;;;;;;;16.80;3.13;;;9.30;99.90;;;;;;6302853;22;20355;-58
2023/12/11 03:54:00;;;;;;;12.07;3.00;;;9.40;99.90;;;;;;6302954;22;20014;-58
2023/12/11 03:56:27;;;;;;;17.02;2.55;;;9.40;99.90;;;;;;6303090;22;19999;-58
2023/12/11 03:58:53;;;;;;;10.15;2.35;;;9.40;99.90;;;;;;6303966;22;19999;-58
2023/12/11 04:01:19;;;;;;;20.02;2.50;;;9.40;99.90;;;;;;6303139;22;20057;-57
2023/12/11 04:03:44;;;;;;;14.20;2.78;;;9.40;99.90;;;;;;6303684;22;20000;-58
2023/12/11 04:06:10;;;;;;;16.70;2.30;;;9.40;99.90;;;;;;6301954;22;20006;-58
2023/12/11 04:08:42;;;;;;;24.23;3.15;;;9.40;99.90;;;;;;6295919;22;20094;-59
2023/12/11 04:11:11;;;;;;;12.13;2.85;;;9.40;99.90;;;;;;6303630;22;20008;-56
2023/12/11 04:13:36;;;;;;;22.60;2.85;;;9.40;99.90;;;;;;6303238;22;20014;-58
2023/12/11 04:16:03;;;;;;;17.45;2.83;;;9.40;99.90;;;;;;6303762;22;20004;-58
2023/12/11 04:18:30;;;;;;;24.77;2.92;;;9.40;99.90;;;;;;6302439;22;20011;-59
2023/12/11 04:20:56;;;;;;;14.32;2.67;;;9.30;99.90;;;;;;6302257;22;20006;-59
2023/12/11 04:23:22;;;;;;;12.05;1.65;;;9.30;99.90;;;;;;6302920;22;20839;-60
2023/12/11 04:25:48;;;;;;;18.58;2.65;;;9.30;99.90;;;;;;6303387;22;19996;-58
2023/12/11 04:28:13;;;;;;;12.80;3.63;;;9.30;99.90;;;;;;6302813;22;20604;-58
2023/12/11 04:30:39;;;;;;;14.30;3.05;;;9.20;99.90;;;;;;6303043;22;20423;-60
2023/12/11 04:33:05;;;;;;;15.57;2.10;;;9.20;99.90;;;;;;6302947;22;20003;-59
2023/12/11 04:35:30;;;;;;;15.57;3.63;;;9.30;99.90;;;;;;6302548;22;19996;-59
2023/12/11 04:37:56;;;;;;;8.38;1.85;;;9.20;99.90;;;;;;6303675;22;20003;-59
2023/12/11 04:40:22;;;;;;;12.27;2.60;;;9.20;99.90;;;;;;6303646;22;20423;-58
2023/12/11 04:42:47;;;;;;;12.02;2.53;;;9.20;99.90;;;;;;6302496;22;20083;-59
2023/12/11 04:45:13;;;;;;;18.83;2.17;;;9.20;99.90;;;;;;6302962;22;20423;-58
2023/12/11 04:47:39;;;;;;;17.80;2.60;;;9.30;99.90;;;;;;6303540;22;20454;-59
2023/12/11 04:50:05;;;;;;;13.77;2.47;;;9.30;99.90;;;;;;6276265;22;20493;-57
2023/12/11 04:52:30;;;;;;;15.05;2.70;;;9.20;99.90;;;;;;6303089;22;20027;-61
2023/12/11 04:54:57;;;;;;;12.68;2.53;;;9.30;99.90;;;;;;6302936;22;20002;-59
2023/12/11 04:57:23;;;;;;;23.05;5.75;;;9.30;99.90;;;;;;6302292;22;20007;-59
2023/12/11 04:59:48;;;;;;;18.38;5.20;;;9.30;99.90;;;;;;6303118;22;20003;-59
2023/12/11 05:02:14;;;;;;;14.07;4.25;;;9.40;99.90;;;;;;6303110;22;20680;-59
2023/12/11 05:04:40;;;;;;;14.18;2.05;;;9.40;99.90;;;;;;6305466;22;20076;-58
2023/12/11 05:07:06;;;;;;;16.30;3.33;;;9.50;99.90;;;;;;6304946;22;20052;-58
2023/12/11 05:09:32;;;;;;;15.18;2.97;;;9.50;99.90;;;;;;6301563;22;20446;-59
2023/12/11 05:11:57;;;;;;;10.63;2.28;;;9.50;99.90;;;;;;6306447;22;20029;-58
2023/12/11 05:14:23;;;;;;;14.00;2.28;;;9.50;99.90;;;;;;6306153;22;20086;-58
2023/12/11 05:16:49;;;;;;;15.95;2.30;;;9.50;99.90;;;;;;6306110;22;20014;-59
2023/12/11 05:19:14;;;;;;;15.82;2.50;;;9.50;99.90;;;;;;6306869;22;20323;-59
2023/12/11 05:21:44;;;;;;;14.93;2.40;;;9.50;99.90;;;;;;6278957;22;20590;-59
2023/12/11 05:24:11;;;;;;;16.90;2.00;;;9.50;99.90;;;;;;6305643;22;20103;-58
2023/12/11 05:26:36;;;;;;;16.83;2.42;;;9.60;99.90;;;;;;6306863;22;20003;-59
2023/12/11 05:29:04;;;;;;;10.23;1.70;;;9.50;99.90;;;;;;6306833;22;20335;-58
2023/12/11 05:31:32;;;;;;;12.82;2.10;;;9.50;99.90;;;;;;6305845;22;20431;-58
2023/12/11 05:33:58;;;;;;;15.40;2.33;;;9.50;99.90;;;;;;6305742;22;20007;-59
2023/12/11 05:36:24;;;;;;;16.10;2.90;;;9.50;99.90;;;;;;6305639;22;20419;-59
2023/12/11 05:38:50;;;;;;;18.45;2.30;;;9.40;99.90;;;;;;6306232;22;19995;-59
2023/12/11 05:41:15;;;;;;;12.10;2.47;;;9.40;99.90;;;;;;6305796;22;20339;-59
2023/12/11 05:43:41;;;;;;;13.40;1.55;;;9.40;99.90;;;;;;6306323;22;20007;-58
2023/12/11 05:46:07;;;;;;;15.13;1.60;;;9.40;99.90;;;;;;6306237;22;20003;-58
2023/12/11 05:48:33;;;;;;;17.60;2.00;;;9.30;99.90;;;;;;6306167;22;20003;-59
2023/12/11 05:50:59;;;;;;;10.85;2.00;;;9.30;99.90;;;;;;6305104;22;20335;-57
2023/12/11 05:53:24;;;;;;;15.90;2.42;;;9.30;99.90;;;;;;6305400;22;20007;-59
2023/12/11 05:55:50;;;;;;;20.27;1.60;;;9.30;99.90;;;;;;6305117;22;20108;-59
2023/12/11 05:58:16;;;;;;;11.40;1.73;;;9.30;99.90;;;;;;6306510;22;20463;-59
2023/12/11 06:00:41;;;;;;;11.18;2.35;;;9.20;99.90;;;;;;6306376;22;20049;-58
2023/12/11 06:03:07;;;;;;;17.02;3.35;;;9.20;99.90;;;;;;6306023;22;20027;-59
2023/12/11 06:05:33;;;;;;;10.60;3.00;;;9.20;99.90;;;;;;6305815;22;20006;-59
2023/12/11 06:07:58;;;;;;;26.65;1.85;;;9.30;99.90;;;;;;6300888;22;20003;-58
2023/12/11 06:10:24;;;;;;;17.73;3.25;;;9.30;99.90;;;;;;6304113;22;20696;-59
2023/12/11 06:12:50;;;;;;;16.20;2.17;;;9.40;99.90;;;;;;6306287;22;19999;-59
2023/12/11 06:15:15;;;;;;;12.75;2.60;;;9.50;99.90;;;;;;6305495;22;20008;-58
2023/12/11 06:17:41;;;;;;;18.05;2.33;;;9.50;99.90;;;;;;6304586;22;20471;-60
2023/12/11 06:20:07;;;;;;;14.88;2.67;;;9.60;99.90;;;;;;6304803;22;20034;-58
2023/12/11 06:22:33;;;;;;;8.35;2.38;;;9.60;99.90;;;;;;6304206;22;19999;-59
2023/12/11 06:24:59;;;;;;;19.02;3.15;;;9.60;99.90;;;;;;6302955;22;20007;-58
2023/12/11 06:27:27;;;;;;;17.83;2.22;;;9.50;99.90;;;;;;6304565;22;20007;-58
2023/12/11 06:29:53;;;;;;;15.65;2.65;;;9.50;99.90;;;;;;6304101;22;20014;-58
2023/12/11 06:32:19;;;;;;;13.18;2.58;;;9.60;99.90;;;;;;6304195;22;20007;-59
2023/12/11 06:34:44;;;;;;;18.42;3.10;;;9.60;99.90;;;;;;6304635;22;20056;-58
2023/12/11 06:37:10;;;;;;;17.27;2.15;;;9.60;99.90;;;;;;6303967;22;20470;-59
2023/12/11 06:39:36;;;;;;;13.32;2.20;;;9.50;99.90;;;;;;6303696;22;20018;-58
2023/12/11 06:42:02;;;;;;;7.05;2.05;;;9.50;99.90;;;;;;6304836;22;20118;-58
2023/12/11 06:44:28;;;;;;;14.57;3.17;;;9.50;99.90;;;;;;6304383;22;20003;-58
2023/12/11 06:46:54;;;;;;;7.95;1.85;;;9.50;99.90;;;;;;6304643;22;20003;-59
2023/12/11 06:49:19;;;;;;;9.02;2.05;;;9.50;99.90;;;;;;6303867;22;20014;-57
2023/12/11 06:51:45;;;;;;;12.88;2.20;;;9.50;99.90;;;;;;6303567;22;20446;-59
2023/12/11 06:54:11;;;;;;;11.00;2.13;;;9.40;99.90;;;;;;6304544;22;20029;-58
2023/12/11 06:56:37;;;;;;;16.85;2.15;;;9.40;99.90;;;;;;6303212;22;19999;-57
2023/12/11 06:59:02;;;;;;;10.27;1.80;;;9.40;99.90;;;;;;6304773;22;20006;-59
2023/12/11 07:01:33;;;;;;;24.80;1.42;;;9.50;99.90;;;;;;6304921;22;20094;-59
2023/12/11 07:03:59;;;;;;;12.02;1.75;;;9.50;99.90;;;;;;6304114;22;20015;-59
2023/12/11 07:06:25;;;;;;;10.18;1.90;;;9.50;99.90;;;;;;6304794;22;20003;-58
2023/12/11 07:08:51;;;;;;;10.90;1.55;;;9.50;99.90;;;;;;6298364;22;20091;-61
2023/12/11 07:11:17;;;;;;;14.57;2.15;;;9.40;99.90;;;;;;6305129;22;20412;-58
2023/12/11 07:13:43;;;;;;;12.35;1.55;;;9.40;99.90;;;;;;6304087;22;20011;-59
2023/12/11 07:16:11;;;;;;;15.90;2.30;;;9.40;99.90;;;;;;6303110;22;20015;-58
2023/12/11 07:18:41;;;;;;;12.55;1.58;;;9.40;99.90;;;;;;6303704;22;19999;-57
2023/12/11 07:21:08;;;;;;;13.13;1.63;;;9.30;99.90;;;;;;6304762;22;19995;-58
2023/12/11 07:23:34;;;;;;;13.68;1.90;;;9.40;99.90;;;;;;6304238;22;20079;-58
2023/12/11 07:26:00;;;;;;;10.05;2.13;;;9.40;99.90;;;;;;6304620;22;20053;-59
2023/12/11 07:28:26;;;;;;;7.53;2.47;;;9.40;99.90;;;;;;6303497;22;20004;-59
2023/12/11 07:30:51;;;;;;;8.20;1.30;;;9.40;99.90;;;;;;6304348;22;20009;-59
2023/12/11 07:33:17;;;;;;;14.18;2.88;;;9.40;99.90;;;;;;6275974;22;20403;-59
2023/12/11 07:35:43;;;;;;;16.80;1.50;;;9.40;99.90;;;;;;6304358;22;20304;-59
2023/12/11 07:38:08;;;;;;;17.55;1.88;;;9.40;99.90;;;;;;6302979;22;20025;-59
2023/12/11 07:40:34;;;;;;;14.02;1.77;;;9.50;99.90;;;;;;6303881;22;20001;-58
2023/12/11 07:42:59;;;;;;;21.33;4.10;;;9.50;99.90;;;;;;6304337;22;20389;-59
2023/12/11 07:45:25;;;;;;;25.48;2.83;;;9.50;99.90;;;;;;6304109;22;20003;-59
2023/12/11 07:47:51;;;;;;;9.15;1.65;;;9.60;99.90;;;;;;6303624;22;20007;-59
2023/12/11 07:50:16;;;;;;;6.80;1.45;;;9.60;99.90;;;;;;6303772;22;20382;-59
2023/12/11 07:52:42;;;;;;;19.80;2.58;;;9.70;99.90;;;;;;6304074;22;20014;-59
2023/12/11 07:55:08;;;;;;;12.35;2.05;;;9.70;99.90;;;;;;6302687;22;20021;-59
2023/12/11 07:57:34;;;;;;;15.85;1.48;;;9.70;99.90;;;;;;6303711;22;20078;-58
2023/12/11 07:59:59;;;;;;;8.00;1.50;;;9.80;99.90;;;;;;6304186;22;19999;-58
2023/12/11 08:02:25;;;;;;;14.43;2.38;;;9.80;99.90;;;;;;6303505;22;20618;-59
2023/12/11 08:04:51;;;;;;;15.60;1.77;;;9.80;99.90;;;;;;6303108;22;20003;-59
2023/12/11 08:07:17;;;;;;;15.68;1.83;;;9.80;99.90;;;;;;6302913;22;20002;-59
2023/12/11 08:09:43;;;;;;;12.95;1.98;;;9.80;99.90;;;;;;6297678;22;20006;-58
2023/12/11 08:12:09;;;;;;;12.25;1.90;;;9.80;99.90;;;;;;6303824;22;20455;-59
2023/12/11 08:14:34;;;;;;;12.48;1.95;;;9.80;99.90;;;;;;6303703;22;20031;-58
2023/12/11 08:17:00;;;;;;;13.35;2.45;;;9.80;99.90;;;;;;6303490;22;19999;-59
2023/12/11 08:19:26;;;;;;;7.78;2.17;;;9.70;99.90;;;;;;6302778;22;20085;-59
2023/12/11 08:21:52;;;;;;;17.70;2.80;;;9.70;99.90;;;;;;6303573;22;19999;-59
2023/12/11 08:24:18;;;;;;;10.90;2.22;;;9.80;99.90;;;;;;6304397;22;20007;-59
2023/12/11 08:26:44;;;;;;;13.20;2.67;;;9.70;99.90;;;;;;6304009;22;20384;-58
2023/12/11 08:29:10;;;;;;;10.15;2.53;;;9.80;99.90;;;;;;6303103;22;20003;-59
2023/12/11 08:31:36;;;;;;;14.40;2.88;;;9.80;99.90;;;;;;6304018;22;20060;-59
2023/12/11 08:34:02;;;;;;;15.13;3.58;;;9.80;99.90;;;;;;6304027;22;19999;-59
2023/12/11 08:36:27;;;;;;;35.22;8.07;;;9.80;99.90;;;;;;6304121;22;19999;-57
2023/12/11 08:38:53;;;;;;;69.88;17.67;;;9.80;99.90;;;;;;6303079;22;20033;-58
2023/12/11 08:41:19;;;;;;;26.38;5.18;;;9.90;99.90;;;;;;6301928;22;20003;-59
2023/12/11 08:43:46;;;;;;;32.42;8.55;;;9.90;99.90;;;;;;6303194;22;20091;-57
2023/12/11 08:46:12;;;;;;;20.02;6.13;;;10.00;99.90;;;;;;6304119;22;20094;-59
2023/12/11 08:48:38;;;;;;;24.67;3.28;;;10.00;99.90;;;;;;6303886;22;20014;-59
2023/12/11 08:51:04;;;;;;;12.77;2.58;;;10.10;99.90;;;;;;6301994;22;20428;-58
2023/12/11 08:53:30;;;;;;;14.40;2.22;;;10.10;99.90;;;;;;6303446;22;20025;-59
2023/12/11 08:55:56;;;;;;;10.13;2.28;;;10.20;99.90;;;;;;6302550;22;20055;-59
2023/12/11 08:58:23;;;;;;;10.40;3.38;;;10.30;99.90;;;;;;6303613;22;19999;-59
2023/12/11 09:00:49;;;;;;;12.88;2.20;;;10.30;99.90;;;;;;6302709;22;20090;-59
2023/12/11 09:03:15;;;;;;;12.13;1.63;;;10.30;99.90;;;;;;6303649;22;20030;-59
2023/12/11 09:05:41;;;;;;;12.75;2.03;;;10.40;99.90;;;;;;6303743;22;20003;-58
2023/12/11 09:08:06;;;;;;;16.38;3.60;;;10.30;99.90;;;;;;6303542;22;20003;-57
2023/12/11 09:10:33;;;;;;;17.63;3.00;;;10.40;99.90;;;;;;6297004;22;20388;-58
2023/12/11 09:12:59;;;;;;;11.70;2.00;;;10.40;99.90;;;;;;6303692;22;20016;-59
2023/12/11 09:15:25;;;;;;;23.38;4.10;;;10.40;99.90;;;;;;6303596;22;20098;-60
2023/12/11 09:17:51;;;;;;;12.40;3.67;;;10.40;99.90;;;;;;6302637;22;20081;-59
2023/12/11 09:20:17;;;;;;;14.43;2.55;;;10.40;99.90;;;;;;6301695;22;19999;-59
2023/12/11 09:22:43;;;;;;;17.70;2.95;;;10.40;99.90;;;;;;6303396;22;20446;-58
2023/12/11 09:25:09;;;;;;;13.38;3.55;;;10.50;99.90;;;;;;6302790;22;20074;-61
2023/12/11 09:27:35;;;;;;;13.10;3.00;;;10.50;99.90;;;;;;6303025;22;20014;-58
2023/12/11 09:30:00;;;;;;;13.50;2.53;;;10.50;99.90;;;;;;6302173;22;19999;-57
2023/12/11 09:32:27;;;;;;;9.90;2.15;;;10.50;99.90;;;;;;6303450;22;20007;-59
2023/12/11 09:34:53;;;;;;;12.18;1.33;;;10.50;99.90;;;;;;6303417;22;20481;-59
2023/12/11 09:37:19;;;;;;;4.57;1.30;;;10.60;99.90;;;;;;6301913;22;20096;-59
2023/12/11 09:39:45;;;;;;;9.75;1.80;;;10.60;99.90;;;;;;6303159;22;20019;-59
2023/12/11 09:42:13;;;;;;;6.30;1.17;;;10.60;99.90;;;;;;6303828;22;20002;-59
2023/12/11 09:44:41;;;;;;;9.52;1.50;;;10.60;99.90;;;;;;6304034;22;20007;-58
2023/12/11 09:47:23;;;;;;;19.92;2.53;;;10.60;99.90;;;;;;6302815;22;20000;-58
2023/12/11 09:49:48;;;;;;;21.67;2.25;;;10.60;99.90;;;;;;6303320;22;19999;-58
2023/12/11 09:52:14;;;;;;;12.20;1.95;;;10.60;99.90;;;;;;6305723;22;20058;-58
2023/12/11 09:54:41;;;;;;;9.57;1.80;;;10.60;99.90;;;;;;6305143;22;20018;-59
2023/12/11 09:57:11;;;;;;;8.80;1.67;;;10.60;99.90;;;;;;6305395;22;20018;-58
2023/12/11 09:59:38;;;;;;;9.70;2.38;;;10.60;99.90;;;;;;6304704;22;20026;-59
2023/12/11 10:02:08;;;;;;;15.25;1.90;;;10.60;99.90;;;;;;6306155;22;20003;-59
2023/12/11 10:04:33;;;;;;;15.82;2.30;;;10.60;99.90;;;;;;6305265;22;20010;-58
2023/12/11 10:06:59;;;;;;;15.77;3.08;;;10.60;99.90;;;;;;6305130;22;20003;-59
2023/12/11 10:09:28;;;;;;;14.50;1.95;;;10.60;99.90;;;;;;6299421;22;20031;-59
2023/12/11 10:12:02;;;;;;;10.77;2.45;;;10.60;99.90;;;;;;6306056;22;20375;-59
2023/12/11 10:14:30;;;;;;;21.15;3.13;;;10.60;99.90;;;;;;6304648;22;20447;-59
2023/12/11 10:16:56;;;;;;;13.77;2.33;;;10.60;99.90;;;;;;6304390;22;20066;-58
2023/12/11 10:19:32;;;;;;;10.75;2.55;;;10.60;99.90;;;;;;6304594;22;20044;-58
2023/12/11 10:21:58;;;;;;;15.68;3.25;;;10.60;99.90;;;;;;6304293;22;20017;-58
2023/12/11 10:24:24;;;;;;;11.32;1.80;;;10.60;99.90;;;;;;6304833;22;20070;-57
2023/12/11 10:26:57;;;;;;;13.38;2.03;;;10.60;99.90;;;;;;6306120;22;20035;-59
2023/12/11 10:29:25;;;;;;;13.50;1.60;;;10.60;99.90;;;;;;6305292;22;20007;-58
2023/12/11 10:31:52;;;;;;;17.48;2.25;;;10.60;99.90;;;;;;6305882;22;19999;-59
2023/12/11 10:34:18;;;;;;;13.43;2.15;;;10.60;99.90;;;;;;6304529;22;20439;-59
2023/12/11 10:36:50;;;;;;;16.98;1.90;;;10.60;99.90;;;;;;6304225;22;19995;-59
2023/12/11 10:39:18;;;;;;;11.02;1.83;;;10.60;99.90;;;;;;6277236;22;20003;-59
2023/12/11 10:41:46;;;;;;;18.15;2.30;;;10.50;99.90;;;;;;6278269;22;20004;-58
2023/12/11 10:44:26;;;;;;;15.93;3.45;;;10.50;99.90;;;;;;6305447;22;20431;-59
2023/12/11 10:46:54;;;;;;;19.38;3.78;;;10.50;99.90;;;;;;6304332;22;20038;-57
2023/12/11 10:49:22;;;;;;;16.30;2.78;;;10.50;99.90;;;;;;6305257;22;20007;-59
2023/12/11 10:51:48;;;;;;;9.60;2.40;;;10.60;99.90;;;;;;6304573;22;20011;-58
2023/12/11 10:54:14;;;;;;;23.60;3.42;;;10.50;99.90;;;;;;6305098;22;19999;-60
2023/12/11 10:56:43;;;;;;;13.38;2.63;;;10.50;99.90;;;;;;6304482;22;20033;-59
2023/12/11 10:59:11;;;;;;;14.82;2.10;;;10.50;99.90;;;;;;6304176;22;20378;-60
2023/12/11 11:01:39;;;;;;;10.50;1.83;;;10.50;99.90;;;;;;6304602;22;20494;-59
2023/12/11 11:04:07;;;;;;;6.10;2.20;;;10.60;99.90;;;;;;6305710;22;20523;-60
2023/12/11 11:06:38;;;;;;;15.18;2.83;;;10.60;99.90;;;;;;6304086;22;20000;-59
2023/12/11 11:09:16;;;;;;;8.30;1.95;;;10.60;99.90;;;;;;6303701;22;20019;-59
2023/12/11 11:11:49;;;;;;;6.80;2.20;;;10.60;99.90;;;;;;6300823;22;20082;-58
2023/12/11 11:14:15;;;;;;;;;;;10.60;99.90;;;;;;6305267;22;20011;-59
2023/12/11 11:16:57;;;;;;;13.95;1.27;;;10.60;99.90;;;;;;6305077;22;19899;-59
2023/12/11 11:19:27;;;;;;;9.82;1.75;;;10.60;99.90;;;;;;6304779;22;19999;-59
2023/12/11 11:22:06;;;;;;;16.23;2.83;;;10.60;99.90;;;;;;6303723;22;20026;-59
2023/12/11 11:24:34;;;;;;;7.47;2.35;;;10.60;99.90;;;;;;6304089;22;20006;-58
2023/12/11 11:27:04;;;;;;;8.15;2.42;;;10.50;99.90;;;;;;6302966;22;20339;-59
2023/12/11 11:29:44;;;;;;;9.93;1.95;;;10.50;99.90;;;;;;6303640;22;20014;-59
2023/12/11 11:32:11;;;;;;;11.40;2.15;;;10.60;99.90;;;;;;6303749;22;20466;-59
2023/12/11 11:34:39;;;;;;;7.82;1.58;;;10.60;99.90;;;;;;6304636;22;20010;-59
2023/12/11 11:37:05;;;;;;;8.85;1.77;;;10.70;99.90;;;;;;6300948;22;20394;-57
2023/12/11 11:39:57;;;;;;;9.68;2.15;;;10.70;99.90;;;;;;6275034;22;19999;-59
2023/12/11 11:42:23;;;;;;;9.88;1.77;;;10.70;99.90;;;;;;6305176;22;20003;-59
2023/12/11 11:44:57;;;;;;;15.82;2.20;;;10.70;99.90;;;;;;6302918;22;20597;-59
2023/12/11 11:47:24;;;;;;;13.65;2.20;;;10.60;99.90;;;;;;6303929;22;20003;-59
2023/12/11 11:49:50;;;;;;;11.25;2.25;;;10.50;99.90;;;;;;6304574;22;20001;-58
2023/12/11 11:52:27;;;;;;;14.10;2.03;;;10.60;99.90;;;;;;6303936;22;20010;-57
2023/12/11 11:55:16;;;;;;;15.65;2.88;;;10.50;99.90;;;;;;6304447;22;20003;-59
2023/12/11 11:57:43;;;;;;;11.20;1.50;;;10.50;99.90;;;;;;6284206;22;20010;-58
2023/12/11 12:00:09;;;;;;;15.35;1.98;;;10.30;99.90;;;;;;6303542;22;20010;-58
2023/12/11 12:02:35;;;;;;;22.95;3.33;;;10.20;99.90;;;;;;6304997;22;20044;-59
2023/12/11 12:05:08;;;;;;;15.80;1.67;;;10.20;99.90;;;;;;6304339;22;19995;-59
2023/12/11 12:07:37;;;;;;;12.93;1.67;;;10.10;99.90;;;;;;6304152;22;20006;-58
2023/12/11 12:10:02;;;;;;;12.25;2.65;;;10.10;99.90;;;;;;6297481;22;20000;-58
2023/12/11 12:12:28;;;;;;;11.02;1.92;;;10.10;99.90;;;;;;6304929;22;20010;-58
2023/12/11 12:15:02;;;;;;;20.30;2.97;;;10.10;99.90;;;;;;6302342;22;20010;-58
2023/12/11 12:17:27;;;;;;;10.73;2.92;;;10.20;99.90;;;;;;6304889;22;19999;-58
2023/12/11 12:19:53;;;;;;;12.50;3.33;;;10.20;99.90;;;;;;6303823;22;20475;-59
2023/12/11 12:22:19;;;;;;;15.07;2.15;;;10.20;99.90;;;;;;6303899;22;20312;-58
2023/12/11 12:24:48;;;;;;;16.08;2.15;;;10.20;99.90;;;;;;6303018;22;20010;-59
2023/12/11 12:27:18;;;;;;;12.68;2.03;;;10.10;99.90;;;;;;6304413;22;20003;-58
2023/12/11 12:29:45;;;;;;;13.68;1.85;;;9.90;99.90;;;;;;6302409;22;20074;-57
2023/12/11 12:32:14;;;;;;;14.45;2.17;;;9.80;99.90;;;;;;6303939;22;19999;-59
2023/12/11 12:34:44;;;;;;;13.55;2.03;;;9.70;99.90;;;;;;6303918;22;20003;-59
2023/12/11 12:37:10;;;;;;;20.88;2.40;;;9.60;99.90;;;;;;6304055;22;20051;-58
2023/12/11 12:39:36;;;;;;;15.85;3.20;;;9.50;99.90;;;;;;6305229;22;20367;-59
2023/12/11 12:42:02;;;;;;;10.02;1.88;;;9.50;99.90;;;;;;6303933;22;20006;-59
2023/12/11 12:44:28;;;;;;;8.70;2.33;;;9.40;99.90;;;;;;6304740;22;20078;-59